sensor_id;sensor_type;location;lat;lon;timestamp;temperature;humidity
17033;DHT22;63208;52.178;21.016;2023-07-22T00:01:50;19.00;99.90
17033;DHT22;63208;52.178;21.016;2023-07-22T00:04:17;19.00;99.90
17033;DHT22;63208;52.178;21.016;2023-07-22T00:06:43;19.00;99.90
17033;DHT22;63208;52.178;21.016;2023-07-22T00:09:10;19.00;99.90
17033;DHT22;63208;52.178;21.016;2023-07-22T00:11:37;19.00;99.90
17033;DHT22;63208;52.178;21.016;2023-07-22T00:14:04;18.90;99.90
17033;DHT22;63208;52.178;21.016;2023-07-22T00:16:33;18.90;99.90
17033;DHT22;63208;52.178;21.016;2023-07-22T00:18:59;19.00;99.90
17033;DHT22;63208;52.178;21.016;2023-07-22T00:21:27;18.90;99.90
17033;DHT22;63208;52.178;21.016;2023-07-22T00:23:54;18.90;99.90
17033;DHT22;63208;52.178;21.016;2023-07-22T00:26:21;18.90;99.90
17033;DHT22;63208;52.178;21.016;2023-07-22T00:28:48;18.80;99.90
17033;DHT22;63208;52.178;21.016;2023-07-22T00:31:14;18.70;99.90
17033;DHT22;63208;52.178;21.016;2023-07-22T00:33:43;18.60;99.90
17033;DHT22;63208;52.178;21.016;2023-07-22T00:36:10;18.70;99.90
17033;DHT22;63208;52.178;21.016;2023-07-22T00:38:37;18.60;99.90
17033;DHT22;63208;52.178;21.016;2023-07-22T00:41:05;18.60;99.90
17033;DHT22;63208;52.178;21.016;2023-07-22T00:43:32;18.70;99.90
17033;DHT22;63208;52.178;21.016;2023-07-22T00:45:59;18.60;99.90
17033;DHT22;63208;52.178;21.016;2023-07-22T00:48:27;18.60;99.90
17033;DHT22;63208;52.178;21.016;2023-07-22T00:50:55;18.60;99.90
17033;DHT22;63208;52.178;21.016;2023-07-22T00:53:22;18.50;99.90
17033;DHT22;63208;52.178;21.016;2023-07-22T00:55:49;18.50;99.90
17033;DHT22;63208;52.178;21.016;2023-07-22T00:58:16;18.50;99.90
17033;DHT22;63208;52.178;21.016;2023-07-22T01:00:43;18.50;99.90
17033;DHT22;63208;52.178;21.016;2023-07-22T01:03:09;18.50;99.90
17033;DHT22;63208;52.178;21.016;2023-07-22T01:05:37;18.40;99.90
17033;DHT22;63208;52.178;21.016;2023-07-22T01:08:06;18.50;99.90
17033;DHT22;63208;52.178;21.016;2023-07-22T01:10:33;18.50;99.90
17033;DHT22;63208;52.178;21.016;2023-07-22T01:12:59;18.40;99.90
17033;DHT22;63208;52.178;21.016;2023-07-22T01:15:27;18.40;99.90
17033;DHT22;63208;52.178;21.016;2023-07-22T01:17:55;18.30;99.90
17033;DHT22;63208;52.178;21.016;2023-07-22T01:20:27;18.40;99.90
17033;DHT22;63208;52.178;21.016;2023-07-22T01:22:55;18.40;99.90
17033;DHT22;63208;52.178;21.016;2023-07-22T01:25:23;18.40;99.90
17033;DHT22;63208;52.178;21.016;2023-07-22T01:27:50;18.40;99.90
17033;DHT22;63208;52.178;21.016;2023-07-22T01:30:18;18.40;99.90
17033;DHT22;63208;52.178;21.016;2023-07-22T01:32:45;18.40;99.90
17033;DHT22;63208;52.178;21.016;2023-07-22T01:35:11;18.30;99.90
17033;DHT22;63208;52.178;21.016;2023-07-22T01:37:38;18.30;99.90
17033;DHT22;63208;52.178;21.016;2023-07-22T01:40:09;18.30;99.90
17033;DHT22;63208;52.178;21.016;2023-07-22T01:42:37;18.30;99.90
17033;DHT22;63208;52.178;21.016;2023-07-22T01:45:05;18.30;99.90
17033;DHT22;63208;52.178;21.016;2023-07-22T01:47:33;18.30;99.90
17033;DHT22;63208;52.178;21.016;2023-07-22T01:50:00;18.20;99.90
17033;DHT22;63208;52.178;21.016;2023-07-22T01:52:26;18.20;99.90
17033;DHT22;63208;52.178;21.016;2023-07-22T01:54:53;18.30;99.90
17033;DHT22;63208;52.178;21.016;2023-07-22T01:57:21;18.20;99.90
17033;DHT22;63208;52.178;21.016;2023-07-22T01:59:48;18.20;99.90
17033;DHT22;63208;52.178;21.016;2023-07-22T02:02:15;18.30;99.90
17033;DHT22;63208;52.178;21.016;2023-07-22T02:04:42;18.20;99.90
17033;DHT22;63208;52.178;21.016;2023-07-22T02:07:08;18.20;99.90
17033;DHT22;63208;52.178;21.016;2023-07-22T02:09:35;18.20;99.90
17033;DHT22;63208;52.178;21.016;2023-07-22T02:12:02;18.20;99.90
17033;DHT22;63208;52.178;21.016;2023-07-22T02:14:31;18.10;99.90
17033;DHT22;63208;52.178;21.016;2023-07-22T02:16:57;18.00;99.90
17033;DHT22;63208;52.178;21.016;2023-07-22T02:19:24;18.10;99.90
17033;DHT22;63208;52.178;21.016;2023-07-22T02:21:52;18.00;99.90
17033;DHT22;63208;52.178;21.016;2023-07-22T02:24:19;18.00;99.90
17033;DHT22;63208;52.178;21.016;2023-07-22T02:26:45;18.00;99.90
17033;DHT22;63208;52.178;21.016;2023-07-22T02:29:12;18.00;99.90
17033;DHT22;63208;52.178;21.016;2023-07-22T02:31:43;18.00;99.90
17033;DHT22;63208;52.178;21.016;2023-07-22T02:34:11;18.00;99.90
17033;DHT22;63208;52.178;21.016;2023-07-22T02:36:38;18.00;99.90
17033;DHT22;63208;52.178;21.016;2023-07-22T02:39:05;18.00;99.90
17033;DHT22;63208;52.178;21.016;2023-07-22T02:41:35;17.90;99.90
17033;DHT22;63208;52.178;21.016;2023-07-22T02:44:02;17.90;99.90
17033;DHT22;63208;52.178;21.016;2023-07-22T02:46:29;17.90;99.90
17033;DHT22;63208;52.178;21.016;2023-07-22T02:48:58;17.90;99.90
17033;DHT22;63208;52.178;21.016;2023-07-22T02:51:25;17.90;99.90
17033;DHT22;63208;52.178;21.016;2023-07-22T02:53:52;17.90;99.90
17033;DHT22;63208;52.178;21.016;2023-07-22T02:56:19;17.80;99.90
17033;DHT22;63208;52.178;21.016;2023-07-22T02:58:45;17.80;99.90
17033;DHT22;63208;52.178;21.016;2023-07-22T03:01:13;17.80;99.90
17033;DHT22;63208;52.178;21.016;2023-07-22T03:03:40;17.80;99.90
17033;DHT22;63208;52.178;21.016;2023-07-22T03:06:08;17.90;99.90
17033;DHT22;63208;52.178;21.016;2023-07-22T03:08:35;18.00;99.90
17033;DHT22;63208;52.178;21.016;2023-07-22T03:11:02;17.90;99.90
17033;DHT22;63208;52.178;21.016;2023-07-22T03:13:30;17.70;99.90
17033;DHT22;63208;52.178;21.016;2023-07-22T03:15:57;17.60;99.90
17033;DHT22;63208;52.178;21.016;2023-07-22T03:18:24;17.60;99.90
17033;DHT22;63208;52.178;21.016;2023-07-22T03:20:51;17.70;99.90
17033;DHT22;63208;52.178;21.016;2023-07-22T03:23:19;17.60;99.90
17033;DHT22;63208;52.178;21.016;2023-07-22T03:25:47;17.60;99.90
17033;DHT22;63208;52.178;21.016;2023-07-22T03:28:14;17.60;99.90
17033;DHT22;63208;52.178;21.016;2023-07-22T03:30:42;17.60;99.90
17033;DHT22;63208;52.178;21.016;2023-07-22T03:33:09;17.60;99.90
17033;DHT22;63208;52.178;21.016;2023-07-22T03:35:36;17.50;99.90
17033;DHT22;63208;52.178;21.016;2023-07-22T03:38:03;17.50;99.90
17033;DHT22;63208;52.178;21.016;2023-07-22T03:40:32;17.50;99.90
17033;DHT22;63208;52.178;21.016;2023-07-22T03:42:59;17.50;99.90
17033;DHT22;63208;52.178;21.016;2023-07-22T03:45:25;17.50;99.90
17033;DHT22;63208;52.178;21.016;2023-07-22T03:47:55;17.50;99.90
17033;DHT22;63208;52.178;21.016;2023-07-22T03:50:23;17.50;99.90
17033;DHT22;63208;52.178;21.016;2023-07-22T03:52:49;17.50;99.90
17033;DHT22;63208;52.178;21.016;2023-07-22T03:55:16;17.60;99.90
17033;DHT22;63208;52.178;21.016;2023-07-22T03:57:46;17.70;99.90
17033;DHT22;63208;52.178;21.016;2023-07-22T04:00:13;17.70;99.90
17033;DHT22;63208;52.178;21.016;2023-07-22T04:02:40;17.80;99.90
17033;DHT22;63208;52.178;21.016;2023-07-22T04:05:08;17.70;99.90
17033;DHT22;63208;52.178;21.016;2023-07-22T04:07:34;17.70;99.90
17033;DHT22;63208;52.178;21.016;2023-07-22T04:10:01;17.80;99.90
17033;DHT22;63208;52.178;21.016;2023-07-22T04:12:29;17.80;99.90
17033;DHT22;63208;52.178;21.016;2023-07-22T04:14:57;17.80;99.90
17033;DHT22;63208;52.178;21.016;2023-07-22T04:17:24;17.90;99.90
17033;DHT22;63208;52.178;21.016;2023-07-22T04:19:51;18.00;99.90
17033;DHT22;63208;52.178;21.016;2023-07-22T04:22:18;18.00;99.90
17033;DHT22;63208;52.178;21.016;2023-07-22T04:24:45;17.90;99.90
17033;DHT22;63208;52.178;21.016;2023-07-22T04:27:13;17.90;99.90
17033;DHT22;63208;52.178;21.016;2023-07-22T04:34:37;17.90;99.90
17033;DHT22;63208;52.178;21.016;2023-07-22T04:37:04;18.00;99.90
17033;DHT22;63208;52.178;21.016;2023-07-22T04:39:31;18.00;99.90
17033;DHT22;63208;52.178;21.016;2023-07-22T04:42:07;17.90;99.90
17033;DHT22;63208;52.178;21.016;2023-07-22T04:44:34;17.90;99.90
17033;DHT22;63208;52.178;21.016;2023-07-22T04:47:00;17.90;99.90
17033;DHT22;63208;52.178;21.016;2023-07-22T04:49:29;17.90;99.90
17033;DHT22;63208;52.178;21.016;2023-07-22T04:51:55;18.00;99.90
17033;DHT22;63208;52.178;21.016;2023-07-22T04:56:49;17.90;99.90
17033;DHT22;63208;52.178;21.016;2023-07-22T04:59:16;17.80;99.90
17033;DHT22;63208;52.178;21.016;2023-07-22T05:01:43;17.90;99.90
17033;DHT22;63208;52.178;21.016;2023-07-22T05:04:10;17.90;99.90
17033;DHT22;63208;52.178;21.016;2023-07-22T05:06:38;17.90;99.90
17033;DHT22;63208;52.178;21.016;2023-07-22T05:09:05;17.90;99.90
17033;DHT22;63208;52.178;21.016;2023-07-22T05:11:32;17.90;99.90
17033;DHT22;63208;52.178;21.016;2023-07-22T05:13:59;17.90;99.90
17033;DHT22;63208;52.178;21.016;2023-07-22T05:16:25;17.90;99.90
17033;DHT22;63208;52.178;21.016;2023-07-22T05:18:52;17.90;99.90
17033;DHT22;63208;52.178;21.016;2023-07-22T05:21:19;18.00;99.90
17033;DHT22;63208;52.178;21.016;2023-07-22T05:23:56;17.90;99.90
17033;DHT22;63208;52.178;21.016;2023-07-22T05:28:50;17.70;99.90
17033;DHT22;63208;52.178;21.016;2023-07-22T05:31:18;17.60;99.90
17033;DHT22;63208;52.178;21.016;2023-07-22T05:33:44;17.60;99.90
17033;DHT22;63208;52.178;21.016;2023-07-22T05:36:11;17.60;99.90
17033;DHT22;63208;52.178;21.016;2023-07-22T05:38:38;17.50;99.90
17033;DHT22;63208;52.178;21.016;2023-07-22T05:41:06;17.60;99.90
17033;DHT22;63208;52.178;21.016;2023-07-22T05:43:33;17.60;99.90
17033;DHT22;63208;52.178;21.016;2023-07-22T05:46:00;17.60;99.90
17033;DHT22;63208;52.178;21.016;2023-07-22T05:48:26;17.70;99.90
17033;DHT22;63208;52.178;21.016;2023-07-22T05:50:53;17.50;99.90
17033;DHT22;63208;52.178;21.016;2023-07-22T05:53:20;17.50;99.90
17033;DHT22;63208;52.178;21.016;2023-07-22T05:55:47;17.60;99.90
17033;DHT22;63208;52.178;21.016;2023-07-22T05:58:18;17.60;99.90
17033;DHT22;63208;52.178;21.016;2023-07-22T06:03:12;17.70;99.90
17033;DHT22;63208;52.178;21.016;2023-07-22T06:05:39;17.70;99.90
17033;DHT22;63208;52.178;21.016;2023-07-22T06:08:06;17.80;99.90
17033;DHT22;63208;52.178;21.016;2023-07-22T06:10:33;17.90;99.90
17033;DHT22;63208;52.178;21.016;2023-07-22T06:13:01;17.90;99.90
17033;DHT22;63208;52.178;21.016;2023-07-22T06:15:29;17.90;99.90
17033;DHT22;63208;52.178;21.016;2023-07-22T06:20:23;18.00;99.90
17033;DHT22;63208;52.178;21.016;2023-07-22T06:22:50;18.10;99.90
17033;DHT22;63208;52.178;21.016;2023-07-22T06:25:17;18.20;99.90
17033;DHT22;63208;52.178;21.016;2023-07-22T06:30:19;17.60;99.90
17033;DHT22;63208;52.178;21.016;2023-07-22T06:32:47;18.30;99.90
17033;DHT22;63208;52.178;21.016;2023-07-22T06:35:14;18.30;99.90
17033;DHT22;63208;52.178;21.016;2023-07-22T06:42:36;18.30;99.90
17033;DHT22;63208;52.178;21.016;2023-07-22T06:45:04;18.30;99.90
17033;DHT22;63208;52.178;21.016;2023-07-22T06:49:59;18.40;99.90
17033;DHT22;63208;52.178;21.016;2023-07-22T06:52:26;18.50;99.90
17033;DHT22;63208;52.178;21.016;2023-07-22T06:54:53;18.50;99.90
17033;DHT22;63208;52.178;21.016;2023-07-22T06:57:19;18.50;99.90
17033;DHT22;63208;52.178;21.016;2023-07-22T06:59:47;18.60;99.90
17033;DHT22;63208;52.178;21.016;2023-07-22T07:02:16;18.60;99.90
17033;DHT22;63208;52.178;21.016;2023-07-22T07:04:43;18.70;99.90
17033;DHT22;63208;52.178;21.016;2023-07-22T07:07:11;18.80;99.90
17033;DHT22;63208;52.178;21.016;2023-07-22T07:09:39;18.80;99.90
17033;DHT22;63208;52.178;21.016;2023-07-22T07:12:07;18.80;99.90
17033;DHT22;63208;52.178;21.016;2023-07-22T07:14:34;18.80;99.90
17033;DHT22;63208;52.178;21.016;2023-07-22T07:17:02;19.00;99.90
17033;DHT22;63208;52.178;21.016;2023-07-22T07:22:16;18.90;99.90
17033;DHT22;63208;52.178;21.016;2023-07-22T07:24:43;19.00;99.90
17033;DHT22;63208;52.178;21.016;2023-07-22T07:27:09;19.20;99.90
17033;DHT22;63208;52.178;21.016;2023-07-22T07:29:36;19.30;99.90
17033;DHT22;63208;52.178;21.016;2023-07-22T07:32:03;19.00;99.90
17033;DHT22;63208;52.178;21.016;2023-07-22T07:34:30;19.00;99.90
17033;DHT22;63208;52.178;21.016;2023-07-22T07:36:57;18.80;99.90
17033;DHT22;63208;52.178;21.016;2023-07-22T07:39:25;18.80;99.90
17033;DHT22;63208;52.178;21.016;2023-07-22T07:44:19;18.70;99.90
17033;DHT22;63208;52.178;21.016;2023-07-22T07:46:46;18.90;99.90
17033;DHT22;63208;52.178;21.016;2023-07-22T07:49:12;18.90;99.90
17033;DHT22;63208;52.178;21.016;2023-07-22T07:51:40;19.00;99.90
17033;DHT22;63208;52.178;21.016;2023-07-22T07:54:07;19.20;99.90
17033;DHT22;63208;52.178;21.016;2023-07-22T07:56:36;19.20;99.90
17033;DHT22;63208;52.178;21.016;2023-07-22T07:59:02;19.00;99.90
17033;DHT22;63208;52.178;21.016;2023-07-22T08:03:58;19.10;99.90
17033;DHT22;63208;52.178;21.016;2023-07-22T08:06:25;19.20;99.90
17033;DHT22;63208;52.178;21.016;2023-07-22T08:08:52;19.20;99.90
17033;DHT22;63208;52.178;21.016;2023-07-22T08:11:18;19.40;99.90
17033;DHT22;63208;52.178;21.016;2023-07-22T08:13:47;19.40;99.90
17033;DHT22;63208;52.178;21.016;2023-07-22T08:18:41;19.20;99.90
17033;DHT22;63208;52.178;21.016;2023-07-22T08:21:09;19.30;99.90
17033;DHT22;63208;52.178;21.016;2023-07-22T08:23:36;19.40;99.90
17033;DHT22;63208;52.178;21.016;2023-07-22T08:26:03;19.40;99.90
17033;DHT22;63208;52.178;21.016;2023-07-22T08:28:31;19.40;99.90
17033;DHT22;63208;52.178;21.016;2023-07-22T08:30:59;19.60;99.90
17033;DHT22;63208;52.178;21.016;2023-07-22T08:33:27;19.70;99.90
17033;DHT22;63208;52.178;21.016;2023-07-22T08:35:53;19.80;99.90
17033;DHT22;63208;52.178;21.016;2023-07-22T08:38:21;19.60;99.90
17033;DHT22;63208;52.178;21.016;2023-07-22T08:40:49;19.70;99.90
17033;DHT22;63208;52.178;21.016;2023-07-22T08:45:47;19.60;99.90
17033;DHT22;63208;52.178;21.016;2023-07-22T08:50:45;20.00;99.90
17033;DHT22;63208;52.178;21.016;2023-07-22T08:55:43;20.00;99.90
17033;DHT22;63208;52.178;21.016;2023-07-22T08:58:10;20.10;99.90
17033;DHT22;63208;52.178;21.016;2023-07-22T09:05:35;20.20;99.90
17033;DHT22;63208;52.178;21.016;2023-07-22T09:08:03;20.20;99.90
17033;DHT22;63208;52.178;21.016;2023-07-22T09:10:31;20.40;99.90
17033;DHT22;63208;52.178;21.016;2023-07-22T09:15:28;20.40;99.90
17033;DHT22;63208;52.178;21.016;2023-07-22T09:17:57;20.40;99.90
17033;DHT22;63208;52.178;21.016;2023-07-22T09:20:24;20.40;99.90
17033;DHT22;63208;52.178;21.016;2023-07-22T09:22:55;20.40;99.90
17033;DHT22;63208;52.178;21.016;2023-07-22T09:25:23;20.40;99.90
17033;DHT22;63208;52.178;21.016;2023-07-22T09:32:50;20.70;99.90
17033;DHT22;63208;52.178;21.016;2023-07-22T09:35:17;20.70;99.90
17033;DHT22;63208;52.178;21.016;2023-07-22T09:37:44;20.70;99.90
17033;DHT22;63208;52.178;21.016;2023-07-22T09:40:17;20.70;99.90
17033;DHT22;63208;52.178;21.016;2023-07-22T09:42:46;20.70;99.90
17033;DHT22;63208;52.178;21.016;2023-07-22T09:45:13;20.70;99.90
17033;DHT22;63208;52.178;21.016;2023-07-22T09:47:40;20.70;99.90
17033;DHT22;63208;52.178;21.016;2023-07-22T09:50:10;20.60;99.90
17033;DHT22;63208;52.178;21.016;2023-07-22T09:55:08;20.70;99.90
17033;DHT22;63208;52.178;21.016;2023-07-22T09:57:37;20.90;99.90
17033;DHT22;63208;52.178;21.016;2023-07-22T10:00:05;20.90;99.90
17033;DHT22;63208;52.178;21.016;2023-07-22T10:02:35;20.90;99.90
17033;DHT22;63208;52.178;21.016;2023-07-22T10:05:02;21.00;99.90
17033;DHT22;63208;52.178;21.016;2023-07-22T10:09:59;21.20;99.90
17033;DHT22;63208;52.178;21.016;2023-07-22T10:12:27;21.20;99.90
17033;DHT22;63208;52.178;21.016;2023-07-22T10:14:55;21.40;99.90
17033;DHT22;63208;52.178;21.016;2023-07-22T10:17:23;21.60;99.90
17033;DHT22;63208;52.178;21.016;2023-07-22T10:22:18;21.60;99.90
17033;DHT22;63208;52.178;21.016;2023-07-22T10:27:14;21.00;99.90
17033;DHT22;63208;52.178;21.016;2023-07-22T10:29:42;21.00;99.90
17033;DHT22;63208;52.178;21.016;2023-07-22T10:32:11;21.00;99.90
17033;DHT22;63208;52.178;21.016;2023-07-22T10:34:38;21.10;99.90
17033;DHT22;63208;52.178;21.016;2023-07-22T10:37:05;21.20;99.90
17033;DHT22;63208;52.178;21.016;2023-07-22T10:39:35;21.60;99.90
17033;DHT22;63208;52.178;21.016;2023-07-22T10:53:44;21.70;99.90
17033;DHT22;63208;52.178;21.016;2023-07-22T10:56:14;20.90;99.90
17033;DHT22;63208;52.178;21.016;2023-07-22T10:59:01;21.50;99.90
17033;DHT22;63208;52.178;21.016;2023-07-22T11:04:21;22.00;99.90
17033;DHT22;63208;52.178;21.016;2023-07-22T11:14:34;21.90;99.90
17033;DHT22;63208;52.178;21.016;2023-07-22T11:19:30;22.90;99.90
17033;DHT22;63208;52.178;21.016;2023-07-22T11:21:58;22.70;99.90
17033;DHT22;63208;52.178;21.016;2023-07-22T11:26:54;22.30;99.90
17033;DHT22;63208;52.178;21.016;2023-07-22T11:29:21;22.30;99.90
17033;DHT22;63208;52.178;21.016;2023-07-22T11:31:49;22.10;99.90
17033;DHT22;63208;52.178;21.016;2023-07-22T11:34:18;21.90;99.90
17033;DHT22;63208;52.178;21.016;2023-07-22T11:39:13;21.70;99.90
17033;DHT22;63208;52.178;21.016;2023-07-22T11:41:41;22.10;99.90
17033;DHT22;63208;52.178;21.016;2023-07-22T11:49:25;22.30;99.90
17033;DHT22;63208;52.178;21.016;2023-07-22T11:51:55;22.60;99.90
17033;DHT22;63208;52.178;21.016;2023-07-22T11:54:21;22.50;99.90
17033;DHT22;63208;52.178;21.016;2023-07-22T11:56:48;22.40;99.90
17033;DHT22;63208;52.178;21.016;2023-07-22T11:59:17;22.20;99.90
17033;DHT22;63208;52.178;21.016;2023-07-22T12:01:45;22.10;99.90
17033;DHT22;63208;52.178;21.016;2023-07-22T12:06:40;22.10;99.90
17033;DHT22;63208;52.178;21.016;2023-07-22T12:09:07;22.30;99.90
17033;DHT22;63208;52.178;21.016;2023-07-22T12:11:35;22.50;99.90
17033;DHT22;63208;52.178;21.016;2023-07-22T12:14:10;22.50;99.90
17033;DHT22;63208;52.178;21.016;2023-07-22T12:16:40;22.50;99.90
17033;DHT22;63208;52.178;21.016;2023-07-22T12:19:08;22.80;99.90
17033;DHT22;63208;52.178;21.016;2023-07-22T12:21:38;23.00;99.90
17033;DHT22;63208;52.178;21.016;2023-07-22T12:33:15;23.10;99.90
17033;DHT22;63208;52.178;21.016;2023-07-22T12:35:42;22.90;99.90
17033;DHT22;63208;52.178;21.016;2023-07-22T12:40:36;22.70;99.90
17033;DHT22;63208;52.178;21.016;2023-07-22T12:45:30;22.70;99.90
17033;DHT22;63208;52.178;21.016;2023-07-22T12:47:57;22.90;99.90
17033;DHT22;63208;52.178;21.016;2023-07-22T12:52:52;23.50;99.90
17033;DHT22;63208;52.178;21.016;2023-07-22T12:57:46;23.60;97.50
17033;DHT22;63208;52.178;21.016;2023-07-22T13:00:13;23.30;96.90
17033;DHT22;63208;52.178;21.016;2023-07-22T13:05:08;23.40;96.60
17033;DHT22;63208;52.178;21.016;2023-07-22T13:07:36;23.40;96.60
17033;DHT22;63208;52.178;21.016;2023-07-22T13:19:55;23.90;91.60
17033;DHT22;63208;52.178;21.016;2023-07-22T13:25:13;24.70;91.80
17033;DHT22;63208;52.178;21.016;2023-07-22T13:30:11;24.70;90.50
17033;DHT22;63208;52.178;21.016;2023-07-22T13:32:45;24.10;90.70
17033;DHT22;63208;52.178;21.016;2023-07-22T13:35:12;24.20;90.50
17033;DHT22;63208;52.178;21.016;2023-07-22T13:40:07;24.60;90.30
17033;DHT22;63208;52.178;21.016;2023-07-22T13:45:07;24.90;90.10
17033;DHT22;63208;52.178;21.016;2023-07-22T13:47:34;24.70;97.70
17033;DHT22;63208;52.178;21.016;2023-07-22T13:50:01;25.10;90.40
17033;DHT22;63208;52.178;21.016;2023-07-22T13:54:56;25.70;89.70
17033;DHT22;63208;52.178;21.016;2023-07-22T14:02:18;25.50;85.20
17033;DHT22;63208;52.178;21.016;2023-07-22T14:04:45;24.50;86.90
17033;DHT22;63208;52.178;21.016;2023-07-22T14:07:12;23.00;84.50
17033;DHT22;63208;52.178;21.016;2023-07-22T14:15:01;25.20;82.80
17033;DHT22;63208;52.178;21.016;2023-07-22T14:17:29;24.90;83.00
17033;DHT22;63208;52.178;21.016;2023-07-22T14:22:24;24.70;85.70
17033;DHT22;63208;52.178;21.016;2023-07-22T14:27:18;24.00;89.60
17033;DHT22;63208;52.178;21.016;2023-07-22T14:32:14;25.10;99.90
17033;DHT22;63208;52.178;21.016;2023-07-22T14:37:08;25.10;87.30
17033;DHT22;63208;52.178;21.016;2023-07-22T14:39:35;24.20;80.90
17033;DHT22;63208;52.178;21.016;2023-07-22T14:46:56;24.00;88.30
17033;DHT22;63208;52.178;21.016;2023-07-22T14:49:24;24.30;90.50
17033;DHT22;63208;52.178;21.016;2023-07-22T14:51:50;24.70;90.60
17033;DHT22;63208;52.178;21.016;2023-07-22T14:54:17;24.30;91.40
17033;DHT22;63208;52.178;21.016;2023-07-22T14:56:44;23.10;91.60
17033;DHT22;63208;52.178;21.016;2023-07-22T14:59:13;22.90;92.40
17033;DHT22;63208;52.178;21.016;2023-07-22T15:01:40;23.20;91.30
17033;DHT22;63208;52.178;21.016;2023-07-22T15:04:08;23.70;91.20
17033;DHT22;63208;52.178;21.016;2023-07-22T15:06:36;23.80;90.80
17033;DHT22;63208;52.178;21.016;2023-07-22T15:13:59;23.50;89.70
17033;DHT22;63208;52.178;21.016;2023-07-22T15:16:26;23.10;90.30
17033;DHT22;63208;52.178;21.016;2023-07-22T15:21:20;23.70;88.00
17033;DHT22;63208;52.178;21.016;2023-07-22T15:23:48;23.30;88.20
17033;DHT22;63208;52.178;21.016;2023-07-22T15:28:42;23.30;99.90
17033;DHT22;63208;52.178;21.016;2023-07-22T15:40:58;23.10;89.50
17033;DHT22;63208;52.178;21.016;2023-07-22T15:43:25;23.50;89.10
17033;DHT22;63208;52.178;21.016;2023-07-22T15:45:52;23.90;89.00
17033;DHT22;63208;52.178;21.016;2023-07-22T15:48:23;23.70;89.60
17033;DHT22;63208;52.178;21.016;2023-07-22T15:50:50;23.90;89.70
17033;DHT22;63208;52.178;21.016;2023-07-22T15:55:45;23.80;89.60
17033;DHT22;63208;52.178;21.016;2023-07-22T15:58:13;23.40;90.40
17033;DHT22;63208;52.178;21.016;2023-07-22T16:00:40;23.20;90.50
17033;DHT22;63208;52.178;21.016;2023-07-22T16:03:07;23.10;90.10
17033;DHT22;63208;52.178;21.016;2023-07-22T16:08:03;23.00;90.70
17033;DHT22;63208;52.178;21.016;2023-07-22T16:15:27;22.90;94.00
17033;DHT22;63208;52.178;21.016;2023-07-22T16:22:56;22.80;99.90
17033;DHT22;63208;52.178;21.016;2023-07-22T16:25:23;22.60;92.00
17033;DHT22;63208;52.178;21.016;2023-07-22T16:27:50;22.60;92.50
17033;DHT22;63208;52.178;21.016;2023-07-22T16:30:17;22.60;92.20
17033;DHT22;63208;52.178;21.016;2023-07-22T16:35:12;22.50;92.70
17033;DHT22;63208;52.178;21.016;2023-07-22T16:40:07;22.50;92.20
17033;DHT22;63208;52.178;21.016;2023-07-22T16:42:37;22.60;91.90
17033;DHT22;63208;52.178;21.016;2023-07-22T16:45:05;22.70;94.50
17033;DHT22;63208;52.178;21.016;2023-07-22T16:47:32;22.60;91.40
17033;DHT22;63208;52.178;21.016;2023-07-22T16:59:50;22.40;97.20
17033;DHT22;63208;52.178;21.016;2023-07-22T17:02:16;22.10;91.60
17033;DHT22;63208;52.178;21.016;2023-07-22T17:04:43;22.20;91.70
17033;DHT22;63208;52.178;21.016;2023-07-22T17:07:12;22.30;91.50
17033;DHT22;63208;52.178;21.016;2023-07-22T17:09:40;22.30;91.50
17033;DHT22;63208;52.178;21.016;2023-07-22T17:17:02;22.20;90.80
17033;DHT22;63208;52.178;21.016;2023-07-22T17:19:30;22.10;90.60
17033;DHT22;63208;52.178;21.016;2023-07-22T17:21:57;22.00;90.50
17033;DHT22;63208;52.178;21.016;2023-07-22T17:24:25;22.00;90.00
17033;DHT22;63208;52.178;21.016;2023-07-22T17:26:52;21.90;90.30
17033;DHT22;63208;52.178;21.016;2023-07-22T17:29:18;21.90;90.50
17033;DHT22;63208;52.178;21.016;2023-07-22T17:34:13;21.80;90.80
17033;DHT22;63208;52.178;21.016;2023-07-22T17:36:40;21.90;91.30
17033;DHT22;63208;52.178;21.016;2023-07-22T17:39:07;21.90;91.60
17033;DHT22;63208;52.178;21.016;2023-07-22T17:41:36;21.90;92.00
17033;DHT22;63208;52.178;21.016;2023-07-22T17:44:03;21.90;92.00
17033;DHT22;63208;52.178;21.016;2023-07-22T17:46:30;21.80;91.90
17033;DHT22;63208;52.178;21.016;2023-07-22T17:48:57;21.70;92.10
17033;DHT22;63208;52.178;21.016;2023-07-22T17:51:24;21.70;91.80
17033;DHT22;63208;52.178;21.016;2023-07-22T17:53:51;21.60;90.70
17033;DHT22;63208;52.178;21.016;2023-07-22T17:56:18;21.60;90.80
17033;DHT22;63208;52.178;21.016;2023-07-22T17:58:46;21.60;90.60
17033;DHT22;63208;52.178;21.016;2023-07-22T18:08:35;21.40;90.40
17033;DHT22;63208;52.178;21.016;2023-07-22T18:11:01;21.40;90.30
17033;DHT22;63208;52.178;21.016;2023-07-22T18:13:28;21.40;90.60
17033;DHT22;63208;52.178;21.016;2023-07-22T18:15:56;21.30;90.80
17033;DHT22;63208;52.178;21.016;2023-07-22T18:18:23;21.30;91.00
17033;DHT22;63208;52.178;21.016;2023-07-22T18:20:50;21.30;91.30
17033;DHT22;63208;52.178;21.016;2023-07-22T18:25:44;21.20;91.30
17033;DHT22;63208;52.178;21.016;2023-07-22T18:28:11;21.10;91.40
17033;DHT22;63208;52.178;21.016;2023-07-22T18:30:40;21.00;91.80
17033;DHT22;63208;52.178;21.016;2023-07-22T18:33:08;21.10;91.90
17033;DHT22;63208;52.178;21.016;2023-07-22T18:35:35;21.10;92.40
17033;DHT22;63208;52.178;21.016;2023-07-22T18:38:02;21.10;92.30
17033;DHT22;63208;52.178;21.016;2023-07-22T18:40:29;21.10;92.60
17033;DHT22;63208;52.178;21.016;2023-07-22T18:45:23;21.00;92.10
17033;DHT22;63208;52.178;21.016;2023-07-22T18:47:50;20.90;92.60
17033;DHT22;63208;52.178;21.016;2023-07-22T18:50:18;20.90;92.60
17033;DHT22;63208;52.178;21.016;2023-07-22T18:52:45;20.90;92.70
17033;DHT22;63208;52.178;21.016;2023-07-22T18:55:12;20.90;92.80
17033;DHT22;63208;52.178;21.016;2023-07-22T18:57:39;20.80;92.80
17033;DHT22;63208;52.178;21.016;2023-07-22T19:00:06;20.80;93.00
17033;DHT22;63208;52.178;21.016;2023-07-22T19:02:33;20.80;93.10
17033;DHT22;63208;52.178;21.016;2023-07-22T19:05:00;20.80;93.20
17033;DHT22;63208;52.178;21.016;2023-07-22T19:07:28;20.70;93.50
17033;DHT22;63208;52.178;21.016;2023-07-22T19:09:55;20.90;99.90
17033;DHT22;63208;52.178;21.016;2023-07-22T19:12:22;20.60;93.50
17033;DHT22;63208;52.178;21.016;2023-07-22T19:14:49;20.50;93.50
17033;DHT22;63208;52.178;21.016;2023-07-22T19:26:36;20.40;93.50